Time;durP1;ratioP1;P1;durP2;ratioP2;P2;SDS_P1;SDS_P2;PMS_P1;PMS_P2;Temp;Humidity;BMP_temperature;BMP_pressure;BME280_temperature;BME280_humidity;BME280_pressure;Samples;Min_cycle;Max_cycle;Signal;HPM_P1;HPM_P2
2022/06/20 00:01:44;;;;;;;13.10;10.73;;;25.10;92.40;;;;;;4977855;28;20530;-69
2022/06/20 00:04:14;;;;;;;21.83;10.87;;;25.10;93.00;;;;;;4971918;28;20614;-70
2022/06/20 00:06:40;;;;;;;13.20;10.43;;;25.00;93.50;;;;;;4979859;28;20219;-69
2022/06/20 00:09:06;;;;;;;16.23;14.33;;;24.90;93.20;;;;;;4969100;28;20436;-68
2022/06/20 00:11:41;;;;;;;14.03;11.87;;;24.90;93.50;;;;;;4969350;28;20273;-69
2022/06/20 00:14:12;;;;;;;12.43;11.23;;;25.00;94.40;;;;;;4970800;28;20210;-69
2022/06/20 00:16:37;;;;;;;11.20;10.07;;;25.00;94.60;;;;;;4970876;28;20445;-70
2022/06/20 00:19:03;;;;;;;11.47;10.30;;;24.90;94.40;;;;;;4968940;28;20439;-69
2022/06/20 00:21:30;;;;;;;11.80;10.70;;;24.80;95.20;;;;;;4969107;28;20224;-69
2022/06/20 00:23:55;;;;;;;11.90;10.03;;;24.80;96.10;;;;;;4969845;28;20615;-69
2022/06/20 00:26:21;;;;;;;12.57;11.40;;;24.80;96.00;;;;;;4969329;28;20522;-70
2022/06/20 00:28:48;;;;;;;12.80;11.07;;;24.70;96.90;;;;;;4971160;28;20189;-70
2022/06/20 00:31:14;;;;;;;13.67;11.90;;;24.60;97.20;;;;;;4973618;28;20448;-70
2022/06/20 00:33:40;;;;;;;14.83;12.90;;;24.60;97.50;;;;;;4968499;28;20483;-70
2022/06/20 00:36:06;;;;;;;16.53;13.30;;;24.70;97.90;;;;;;4978738;28;20440;-70
2022/06/20 00:38:31;;;;;;;20.00;13.03;;;24.60;98.40;;;;;;4968724;28;20243;-69
2022/06/20 00:41:05;;;;;;;14.57;12.90;;;24.50;98.90;;;;;;4969760;28;20176;-70
2022/06/20 00:43:37;;;;;;;16.57;12.40;;;24.50;99.70;;;;;;4968793;28;20216;-70
2022/06/20 00:46:07;;;;;;;16.67;13.20;;;24.40;99.90;;;;;;4982284;28;20443;-69
2022/06/20 00:48:46;;;;;;;12.73;11.53;;;24.30;99.90;;;;;;4976994;28;20451;-69
2022/06/20 00:51:35;;;;;;;16.43;11.27;;;24.20;99.90;;;;;;4977495;28;20448;-70
2022/06/20 00:54:22;;;;;;;12.10;11.00;;;24.30;99.90;;;;;;4972976;28;20856;-70
2022/06/20 00:57:05;;;;;;;12.67;11.53;;;24.30;99.90;;;;;;4975172;28;20537;-69
2022/06/20 00:59:34;;;;;;;13.73;12.40;;;24.40;99.90;;;;;;4968793;28;20439;-69
2022/06/20 01:02:02;;;;;;;18.93;12.20;;;24.40;99.90;;;;;;4970404;28;20432;-70
2022/06/20 01:04:42;;;;;;;19.07;14.93;;;24.30;99.90;;;;;;4971635;28;20463;-70
2022/06/20 01:07:16;;;;;;;17.10;13.70;;;24.10;99.90;;;;;;4972982;28;20463;-70
2022/06/20 01:09:46;;;;;;;18.10;15.80;;;23.80;99.90;;;;;;4982358;28;20450;-70
2022/06/20 01:12:16;;;;;;;17.13;15.50;;;23.40;99.90;;;;;;4974574;28;20445;-70
2022/06/20 01:14:42;;;;;;;18.50;16.07;;;23.10;99.90;;;;;;4984882;28;20839;-70
2022/06/20 01:17:32;;;;;;;17.60;14.83;;;23.00;99.90;;;;;;4977755;28;20577;-70
2022/06/20 01:20:18;;;;;;;30.93;24.07;;;22.80;99.90;;;;;;4974911;28;20263;-70
2022/06/20 01:22:56;;;;;;;28.50;23.03;;;22.60;99.90;;;;;;4969629;28;20439;-70
2022/06/20 01:25:27;;;;;;;22.37;18.23;;;22.40;99.90;;;;;;4973519;28;20451;-70
2022/06/20 01:27:53;;;;;;;18.57;16.60;;;22.30;99.90;;;;;;4978404;28;20842;-70
2022/06/20 01:30:23;;;;;;;19.47;16.40;;;22.30;99.90;;;;;;4974746;28;20439;-70
2022/06/20 01:32:49;;;;;;;16.90;15.20;;;22.30;99.90;;;;;;4976031;28;20188;-70
2022/06/20 01:38:02;;;;;;;36.10;28.03;;;22.20;99.90;;;;;;4970854;28;20447;-71
2022/06/20 01:40:29;;;;;;;27.20;20.83;;;22.30;99.90;;;;;;4968321;28;20500;-70
2022/06/20 01:42:55;;;;;;;24.70;20.00;;;22.30;99.90;;;;;;4971280;28;20448;-70
2022/06/20 01:48:13;;;;;;;17.27;15.57;;;22.20;99.90;;;;;;4972016;28;20249;-70
2022/06/20 01:50:40;;;;;;;22.20;16.23;;;22.20;99.90;;;;;;4980593;28;20879;-70
2022/06/20 01:53:07;;;;;;;20.73;15.03;;;22.20;99.90;;;;;;4972880;28;20558;-70
2022/06/20 01:55:33;;;;;;;17.90;14.37;;;22.20;99.90;;;;;;4976329;28;20928;-70
2022/06/20 01:58:29;;;;;;;17.13;15.50;;;22.20;99.90;;;;;;4972223;28;20444;-70
2022/06/20 02:00:57;;;;;;;45.53;27.13;;;22.20;99.90;;;;;;4971979;28;20451;-70
2022/06/20 02:03:23;;;;;;;22.47;16.37;;;22.20;99.90;;;;;;4972729;28;20478;-70
2022/06/20 02:05:53;;;;;;;28.90;20.80;;;22.30;99.90;;;;;;4971658;28;20443;-70
2022/06/20 02:08:21;;;;;;;26.33;20.23;;;22.20;99.90;;;;;;4980069;28;20207;-70
2022/06/20 02:10:58;;;;;;;19.23;17.13;;;22.30;99.90;;;;;;4971968;28;20526;-70
2022/06/20 02:13:27;;;;;;;17.40;13.80;;;22.50;99.90;;;;;;4970580;28;20827;-70
2022/06/20 02:15:58;;;;;;;18.70;14.10;;;22.40;99.90;;;;;;4971785;28;20435;-70
2022/06/20 02:18:29;;;;;;;16.60;14.17;;;22.40;99.90;;;;;;4969571;28;20950;-70
2022/06/20 02:20:59;;;;;;;14.20;12.90;;;22.40;99.90;;;;;;4969179;28;20788;-70
2022/06/20 02:23:28;;;;;;;23.10;15.23;;;22.50;99.90;;;;;;4978422;28;20517;-70
2022/06/20 02:25:55;;;;;;;19.27;15.37;;;22.60;99.90;;;;;;4973862;28;20455;-70
2022/06/20 02:28:27;;;;;;;18.20;16.17;;;22.60;99.90;;;;;;4975531;28;20481;-70
2022/06/20 02:30:53;;;;;;;17.77;15.63;;;22.60;99.90;;;;;;4972770;28;20435;-70
2022/06/20 02:33:25;;;;;;;18.57;15.37;;;22.60;99.90;;;;;;4976935;28;20796;-70
2022/06/20 02:35:53;;;;;;;15.97;14.43;;;22.70;99.90;;;;;;4972482;28;20191;-70
2022/06/20 02:38:20;;;;;;;17.03;14.73;;;22.70;99.90;;;;;;4975396;28;20808;-70
2022/06/20 02:40:47;;;;;;;18.30;13.67;;;22.70;99.90;;;;;;4971053;28;20463;-70
2022/06/20 02:43:22;;;;;;;21.87;14.27;;;22.70;99.90;;;;;;4970498;28;20977;-70
2022/06/20 02:45:49;;;;;;;19.63;15.10;;;22.80;99.90;;;;;;4970824;28;20451;-70
2022/06/20 02:48:17;;;;;;;16.97;13.13;;;22.60;99.90;;;;;;4970048;28;20498;-70
2022/06/20 02:50:48;;;;;;;15.93;12.70;;;22.40;99.90;;;;;;4969606;28;20862;-70
2022/06/20 02:53:27;;;;;;;16.77;12.80;;;22.10;99.90;;;;;;4965501;28;20964;-70
2022/06/20 02:55:53;;;;;;;15.93;13.57;;;21.80;99.90;;;;;;4979745;28;20443;-70
2022/06/20 02:58:26;;;;;;;16.23;11.77;;;21.70;99.90;;;;;;4972250;28;20873;-70
2022/06/20 03:01:01;;;;;;;13.00;11.40;;;21.50;99.90;;;;;;4977882;28;20535;-70
2022/06/20 03:03:34;;;;;;;12.67;11.37;;;21.50;99.90;;;;;;4971341;28;20502;-71
2022/06/20 03:06:00;;;;;;;14.73;12.13;;;21.40;99.90;;;;;;4970840;28;20467;-70
2022/06/20 03:08:26;;;;;;;14.13;11.27;;;21.40;99.90;;;;;;4969325;28;20467;-70
2022/06/20 03:10:54;;;;;;;13.63;10.37;;;21.50;99.90;;;;;;4972535;28;20860;-70
2022/06/20 03:13:22;;;;;;;16.00;11.93;;;21.50;99.90;;;;;;4976116;28;20223;-70
2022/06/20 03:15:50;;;;;;;13.10;10.27;;;21.60;99.90;;;;;;4974180;28;20443;-70
2022/06/20 03:18:19;;;;;;;16.07;10.20;;;21.60;99.90;;;;;;4976670;28;20442;-70
2022/06/20 03:20:46;;;;;;;17.20;11.20;;;21.80;99.90;;;;;;4980577;28;20995;-70
2022/06/20 03:23:17;;;;;;;16.13;10.53;;;21.90;99.90;;;;;;4983719;28;20549;-70
2022/06/20 03:25:44;;;;;;;21.03;11.60;;;21.90;99.90;;;;;;4983012;28;20435;-70
2022/06/20 03:28:20;;;;;;;17.27;10.90;;;21.80;99.90;;;;;;4984518;28;20474;-70
2022/06/20 03:30:46;;;;;;;13.63;12.23;;;21.60;99.90;;;;;;4971075;28;20471;-70
2022/06/20 03:33:14;;;;;;;19.23;14.00;;;21.40;99.90;;;;;;4970490;28;20490;-70
2022/06/20 03:35:48;;;;;;;16.50;13.67;;;21.20;99.90;;;;;;4973101;28;20204;-70
2022/06/20 03:38:15;;;;;;;20.63;13.50;;;21.10;99.90;;;;;;4970057;28;20448;-70
2022/06/20 03:40:42;;;;;;;18.23;14.40;;;21.00;99.90;;;;;;4975397;28;20531;-70
2022/06/20 03:43:11;;;;;;;21.13;13.40;;;20.90;99.90;;;;;;4963638;28;20937;-70
2022/06/20 03:45:44;;;;;;;18.03;16.27;;;20.90;99.90;;;;;;4970696;28;20458;-70
2022/06/20 03:48:22;;;;;;;23.07;15.10;;;20.80;99.90;;;;;;4971520;28;20842;-70
2022/06/20 03:51:11;;;;;;;19.23;14.20;;;20.70;99.90;;;;;;4978892;28;20514;-70
2022/06/20 03:53:46;;;;;;;16.10;13.33;;;20.70;99.90;;;;;;4970031;28;20490;-70
2022/06/20 03:56:20;;;;;;;22.60;14.60;;;20.70;99.90;;;;;;4968339;28;20777;-73
2022/06/20 03:58:59;;;;;;;17.50;13.13;;;20.70;99.90;;;;;;4971929;28;20450;-73
2022/06/20 04:01:58;;;;;;;17.63;13.93;;;20.60;99.90;;;;;;4975394;28;20439;-73
2022/06/20 04:04:27;;;;;;;17.00;14.83;;;20.60;99.90;;;;;;4954792;28;20463;-73
2022/06/20 04:07:03;;;;;;;21.07;13.60;;;20.50;99.90;;;;;;4968820;28;20474;-72
2022/06/20 04:12:48;;;;;;;20.20;15.20;;;20.50;99.90;;;;;;4969523;28;20438;-72
2022/06/20 04:15:19;;;;;;;15.50;14.07;;;20.50;99.90;;;;;;4966025;28;20442;-72
2022/06/20 04:20:40;;;;;;;23.67;14.73;;;20.50;99.90;;;;;;4973684;28;20449;-73
2022/06/20 04:23:13;;;;;;;15.67;13.93;;;20.50;99.90;;;;;;4979604;28;21046;-73
2022/06/20 04:26:00;;;;;;;18.63;15.23;;;20.50;99.90;;;;;;4982568;28;20465;-72
2022/06/20 04:28:39;;;;;;;19.50;17.03;;;20.60;99.90;;;;;;4981196;28;20471;-73
2022/06/20 04:31:43;;;;;;;17.30;14.77;;;20.50;99.90;;;;;;4973158;28;20534;-73
2022/06/20 04:34:20;;;;;;;17.77;15.90;;;20.40;99.90;;;;;;4974265;28;20459;-73
2022/06/20 04:37:06;;;;;;;19.00;16.10;;;20.30;99.90;;;;;;4974152;28;21027;-73
2022/06/20 04:39:40;;;;;;;16.30;14.37;;;20.30;99.90;;;;;;4969309;28;20455;-74
2022/06/20 04:42:37;;;;;;;19.40;14.70;;;20.30;99.90;;;;;;4971714;28;20446;-74
2022/06/20 04:45:24;;;;;;;17.03;15.37;;;20.30;99.90;;;;;;4981847;28;20983;-73
2022/06/20 04:47:59;;;;;;;15.80;14.20;;;20.30;99.90;;;;;;4985038;28;20987;-74
2022/06/20 04:50:29;;;;;;;16.23;13.50;;;20.20;99.90;;;;;;4972739;28;20852;-72
2022/06/20 04:52:59;;;;;;;16.20;14.60;;;20.20;99.90;;;;;;4979221;28;20623;-74
2022/06/20 04:55:27;;;;;;;17.10;13.93;;;20.20;99.90;;;;;;4973091;28;20451;-74
2022/06/20 04:57:56;;;;;;;16.50;13.27;;;20.20;99.90;;;;;;4982615;28;20438;-74
2022/06/20 05:00:27;;;;;;;20.33;15.17;;;20.20;99.90;;;;;;4969744;28;20466;-73
2022/06/20 05:02:55;;;;;;;17.50;14.73;;;20.30;99.90;;;;;;4970955;28;20447;-73
2022/06/20 05:05:25;;;;;;;14.40;13.00;;;20.30;99.90;;;;;;4970695;28;20447;-73
2022/06/20 05:07:51;;;;;;;15.60;14.17;;;20.40;99.90;;;;;;4975096;28;20561;-73
2022/06/20 05:10:29;;;;;;;17.43;13.63;;;20.50;99.90;;;;;;4973916;28;20502;-72
2022/06/20 05:13:00;;;;;;;16.83;15.23;;;20.60;99.90;;;;;;4979562;28;20180;-73
2022/06/20 05:15:36;;;;;;;17.30;15.70;;;20.80;99.90;;;;;;4981158;28;20466;-73
2022/06/20 05:18:26;;;;;;;14.93;13.67;;;20.80;99.90;;;;;;4985331;28;20446;-73
2022/06/20 05:20:57;;;;;;;15.50;12.87;;;20.90;99.90;;;;;;4974614;28;20965;-73
2022/06/20 05:23:41;;;;;;;19.10;14.63;;;21.20;99.90;;;;;;4978154;28;20475;-74
2022/06/20 05:26:12;;;;;;;19.80;13.90;;;21.40;99.90;;;;;;4976425;28;20449;-74
2022/06/20 05:28:40;;;;;;;15.60;14.20;;;21.50;99.90;;;;;;4976100;28;20475;-72
2022/06/20 05:31:06;;;;;;;17.87;13.77;;;21.50;99.90;;;;;;4982753;28;21019;-74
2022/06/20 05:33:44;;;;;;;16.07;14.40;;;21.60;99.90;;;;;;4987130;28;20885;-67
2022/06/20 05:36:29;;;;;;;17.77;16.00;;;21.50;99.90;;;;;;4972113;28;20493;-67
2022/06/20 05:38:58;;;;;;;19.03;14.00;;;21.40;99.90;;;;;;4967734;28;20471;-67
2022/06/20 05:41:24;;;;;;;15.10;13.40;;;21.30;99.90;;;;;;4971232;28;20435;-68
2022/06/20 05:43:50;;;;;;;14.60;13.20;;;21.30;99.90;;;;;;4970459;28;20506;-67
2022/06/20 05:46:31;;;;;;;14.90;13.60;;;21.40;99.90;;;;;;4978351;28;20187;-67
2022/06/20 05:49:04;;;;;;;16.13;13.70;;;21.50;99.90;;;;;;4976664;28;20180;-67
2022/06/20 05:51:34;;;;;;;17.97;16.00;;;21.60;99.90;;;;;;4972085;28;20444;-67
2022/06/20 05:54:04;;;;;;;17.10;15.33;;;21.50;99.90;;;;;;4977664;28;20479;-67
2022/06/20 05:56:44;;;;;;;15.43;13.43;;;21.50;99.90;;;;;;4983318;28;20651;-67
2022/06/20 05:59:25;;;;;;;15.50;13.93;;;21.80;99.90;;;;;;4969846;28;20448;-67
2022/06/20 06:01:53;;;;;;;16.10;13.80;;;22.00;99.90;;;;;;4970440;28;20514;-67
2022/06/20 06:04:36;;;;;;;14.93;12.93;;;22.10;99.90;;;;;;4976518;28;20471;-66
2022/06/20 06:07:09;;;;;;;17.10;15.57;;;22.20;99.90;;;;;;4977695;28;20494;-67
2022/06/20 06:09:38;;;;;;;14.90;13.50;;;22.30;99.90;;;;;;4968964;28;20781;-66
2022/06/20 06:12:13;;;;;;;15.73;14.30;;;22.20;99.90;;;;;;4986096;28;20444;-66
2022/06/20 06:14:48;;;;;;;17.27;14.53;;;22.10;99.90;;;;;;4978181;28;20562;-66
2022/06/20 06:17:26;;;;;;;16.03;14.50;;;22.10;99.90;;;;;;4969368;28;20806;-66
2022/06/20 06:19:55;;;;;;;19.63;13.83;;;22.20;99.90;;;;;;4973726;28;20471;-66
2022/06/20 06:22:22;;;;;;;14.37;13.00;;;22.40;99.90;;;;;;4979685;28;20530;-66
2022/06/20 06:24:54;;;;;;;15.50;13.90;;;22.70;99.90;;;;;;4982283;28;20467;-67
2022/06/20 06:27:29;;;;;;;18.13;14.20;;;22.80;99.90;;;;;;4976583;28;20467;-67
2022/06/20 06:30:19;;;;;;;14.70;12.70;;;22.90;99.90;;;;;;4971180;28;20451;-67
2022/06/20 06:32:58;;;;;;;18.40;13.30;;;22.90;99.90;;;;;;4974341;28;20700;-67
2022/06/20 06:35:38;;;;;;;15.33;13.63;;;23.10;99.90;;;;;;4971066;28;20439;-67
2022/06/20 06:38:14;;;;;;;12.93;11.77;;;23.40;99.90;;;;;;4966572;28;20451;-67
2022/06/20 06:40:50;;;;;;;16.83;12.70;;;23.60;99.90;;;;;;4940129;28;21160;-67
2022/06/20 06:43:20;;;;;;;17.77;13.10;;;24.00;99.90;;;;;;4955003;28;20463;-67
2022/06/20 06:45:50;;;;;;;13.97;12.30;;;24.10;99.90;;;;;;4968054;28;20451;-67
2022/06/20 06:48:22;;;;;;;13.37;11.80;;;24.30;99.90;;;;;;4967398;28;20475;-67
2022/06/20 06:50:55;;;;;;;14.87;13.27;;;24.30;99.90;;;;;;4963359;28;20454;-67
2022/06/20 06:53:30;;;;;;;16.67;13.17;;;24.40;99.90;;;;;;4968955;28;20479;-67
2022/06/20 06:56:10;;;;;;;14.50;12.43;;;24.40;99.90;;;;;;4967153;28;20855;-67
2022/06/20 06:58:42;;;;;;;19.90;12.57;;;24.40;99.90;;;;;;4968413;28;20443;-67
2022/06/20 07:01:20;;;;;;;14.00;11.00;;;24.30;99.90;;;;;;4969296;28;20447;-67
2022/06/20 07:03:51;;;;;;;16.93;13.00;;;24.40;99.90;;;;;;4969420;28;20466;-67
2022/06/20 07:06:26;;;;;;;15.90;14.30;;;24.60;99.90;;;;;;4971306;28;20439;-67
2022/06/20 07:09:03;;;;;;;13.10;11.43;;;24.70;99.90;;;;;;4964817;28;20882;-67
2022/06/20 07:11:32;;;;;;;16.90;13.67;;;24.80;99.90;;;;;;4970497;28;20483;-67
2022/06/20 07:14:09;;;;;;;12.80;11.50;;;24.80;99.90;;;;;;4970584;28;21009;-67
2022/06/20 07:16:57;;;;;;;14.07;12.60;;;25.10;99.90;;;;;;4969691;28;20439;-67
2022/06/20 07:19:24;;;;;;;12.77;10.90;;;25.40;99.90;;;;;;4962055;28;21017;-67
2022/06/20 07:21:49;;;;;;;14.60;11.23;;;25.80;99.90;;;;;;4972382;28;21000;-67
2022/06/20 07:24:22;;;;;;;15.77;12.20;;;25.90;99.90;;;;;;4969419;28;20488;-67
2022/06/20 07:26:55;;;;;;;17.60;10.67;;;26.20;99.90;;;;;;4969229;28;20299;-67
2022/06/20 07:29:33;;;;;;;14.90;12.03;;;26.50;99.90;;;;;;4964480;28;20444;-67
2022/06/20 07:32:13;;;;;;;12.20;10.17;;;26.70;99.90;;;;;;4968424;28;20968;-67
2022/06/20 07:34:47;;;;;;;11.07;10.10;;;27.10;99.90;;;;;;4972719;28;20538;-67
2022/06/20 07:37:18;;;;;;;10.80;9.80;;;27.20;99.90;;;;;;4969319;28;20797;-67
2022/06/20 07:40:12;;;;;;;12.77;9.87;;;27.40;99.90;;;;;;4962952;28;20499;-67
2022/06/20 07:43:01;;;;;;;14.67;10.77;;;27.70;99.90;;;;;;4969411;28;20609;-67
2022/06/20 07:45:47;;;;;;;13.50;10.77;;;28.20;99.90;;;;;;4966236;28;21012;-67
2022/06/20 07:48:20;;;;;;;11.33;10.30;;;27.90;99.90;;;;;;4971233;28;20475;-66
2022/06/20 07:51:01;;;;;;;14.10;10.33;;;28.20;99.90;;;;;;4957488;28;20444;-66
2022/06/20 07:53:56;;;;;;;12.70;10.43;;;28.50;99.90;;;;;;4965906;28;20536;-66
2022/06/20 07:56:30;;;;;;;9.57;8.77;;;28.40;99.90;;;;;;4967399;28;20446;-66
2022/06/20 07:59:03;;;;;;;11.13;9.70;;;28.40;99.90;;;;;;4966203;28;20441;-70
2022/06/20 08:01:34;;;;;;;12.10;9.53;;;28.70;99.90;;;;;;4971117;28;20447;-67
2022/06/20 08:04:05;;;;;;;10.47;9.47;;;28.70;99.90;;;;;;4972561;28;20846;-66
2022/06/20 08:06:42;;;;;;;12.70;8.47;;;29.30;99.90;;;;;;4972632;28;20450;-66
2022/06/20 08:09:38;;;;;;;17.70;9.10;;;29.50;99.90;;;;;;4968503;28;20454;-66
2022/06/20 08:12:15;;;;;;;8.10;7.33;;;29.90;99.90;;;;;;4966727;28;20447;-66
2022/06/20 08:14:59;;;;;;;12.33;10.90;;;30.20;99.90;;;;;;4970961;28;20467;-66
2022/06/20 08:17:27;;;;;;;9.70;8.77;;;30.20;99.90;;;;;;4972461;28;20490;-66
2022/06/20 08:19:55;;;;;;;11.10;7.97;;;30.20;99.90;;;;;;4981832;28;20887;-66
2022/06/20 08:22:47;;;;;;;8.43;7.83;;;30.50;99.90;;;;;;4970225;28;20446;-67
2022/06/20 08:25:26;;;;;;;9.60;8.47;;;30.70;99.60;;;;;;4972888;28;20955;-67
2022/06/20 08:28:15;;;;;;;11.50;9.90;;;30.80;98.80;;;;;;4969201;28;20508;-67
2022/06/20 08:31:17;;;;;;;8.97;8.13;;;30.80;98.70;;;;;;4960179;28;20451;-67
2022/06/20 08:34:04;;;;;;;11.10;7.93;;;31.00;97.70;;;;;;4954122;28;20578;-66
2022/06/20 08:36:46;;;;;;;9.27;8.33;;;30.80;96.40;;;;;;4953768;28;20447;-66
2022/06/20 08:39:25;;;;;;;16.30;9.00;;;31.30;96.40;;;;;;4967122;28;20545;-66
2022/06/20 08:42:05;;;;;;;11.43;9.00;;;31.40;95.50;;;;;;4971472;28;20446;-67
2022/06/20 08:44:49;;;;;;;9.80;7.90;;;31.40;95.20;;;;;;4969589;28;20482;-66
2022/06/20 08:47:34;;;;;;;9.07;8.10;;;31.20;95.20;;;;;;4970719;28;20473;-66
2022/06/20 08:50:34;;;;;;;12.63;7.83;;;31.40;93.90;;;;;;4968346;28;20440;-66
2022/06/20 08:53:24;;;;;;;12.00;9.70;;;31.70;93.10;;;;;;4971251;28;20661;-66
2022/06/20 08:56:14;;;;;;;10.53;8.73;;;31.80;92.60;;;;;;4973853;28;20446;-67
2022/06/20 08:58:45;;;;;;;10.07;8.93;;;31.80;92.70;;;;;;4970576;28;20447;-67
2022/06/20 09:01:24;;;;;;;8.13;7.43;;;32.10;91.40;;;;;;4969228;28;20823;-66
2022/06/20 09:04:11;;;;;;;9.90;8.90;;;32.40;90.80;;;;;;4970969;28;21014;-67
2022/06/20 09:07:07;;;;;;;9.23;7.87;;;32.90;90.10;;;;;;4982352;28;20443;-66
2022/06/20 09:09:35;;;;;;;9.50;8.70;;;33.30;88.30;;;;;;4966286;28;20523;-67
2022/06/20 09:12:31;;;;;;;10.07;9.27;;;33.20;87.20;;;;;;4969401;28;20450;-67
2022/06/20 09:15:03;;;;;;;16.17;8.83;;;33.10;86.90;;;;;;4932902;28;20467;-66
2022/06/20 09:17:52;;;;;;;11.53;8.30;;;33.40;85.80;;;;;;4971041;28;20478;-67
2022/06/20 09:20:33;;;;;;;10.80;7.80;;;33.30;86.70;;;;;;4968660;28;20504;-67
2022/06/20 09:23:17;;;;;;;9.90;8.93;;;33.40;85.90;;;;;;4971762;28;20439;-66
2022/06/20 09:26:04;;;;;;;9.77;8.90;;;33.10;83.40;;;;;;4968458;28;20439;-66
2022/06/20 09:28:54;;;;;;;9.10;8.40;;;33.00;84.00;;;;;;4966918;28;20493;-67
2022/06/20 09:31:57;;;;;;;8.50;7.90;;;32.80;85.50;;;;;;4972619;28;20432;-67
2022/06/20 09:34:55;;;;;;;8.67;7.80;;;33.00;84.10;;;;;;4969023;28;20499;-67
2022/06/20 09:37:20;;;;;;;8.80;8.00;;;33.30;84.90;;;;;;4976280;28;20446;-67
2022/06/20 09:40:07;;;;;;;11.80;7.90;;;33.60;83.50;;;;;;4972078;28;20459;-66
2022/06/20 09:43:17;;;;;;;10.37;8.47;;;33.90;81.10;;;;;;4966894;28;20184;-66
2022/06/20 09:45:58;;;;;;;8.50;7.70;;;34.40;79.00;;;;;;4968899;28;20525;-66
2022/06/20 09:48:49;;;;;;;10.03;8.63;;;34.10;77.40;;;;;;4967151;28;20471;-66
2022/06/20 09:51:24;;;;;;;8.27;7.60;;;33.30;76.30;;;;;;4971242;28;20440;-66
2022/06/20 09:54:13;;;;;;;9.83;7.73;;;32.60;76.70;;;;;;4969302;28;20513;-67
2022/06/20 09:57:01;;;;;;;8.83;8.03;;;32.70;76.90;;;;;;4967883;28;20440;-66
2022/06/20 09:59:53;;;;;;;8.73;7.53;;;33.10;77.30;;;;;;4967490;28;20451;-67
2022/06/20 10:02:42;;;;;;;7.63;7.03;;;33.30;77.80;;;;;;4971223;28;20440;-66
2022/06/20 10:05:32;;;;;;;10.73;7.77;;;33.60;75.30;;;;;;4971541;28;21190;-66
2022/06/20 10:08:07;;;;;;;16.70;8.60;;;33.70;74.80;;;;;;4969502;28;21056;-66
2022/06/20 10:10:48;;;;;;;7.90;7.30;;;33.70;75.00;;;;;;4969438;28;20443;-67
2022/06/20 10:13:23;;;;;;;8.57;7.70;;;33.50;74.70;;;;;;4971415;28;20460;-67
2022/06/20 10:16:23;;;;;;;8.97;8.07;;;33.00;74.20;;;;;;4969573;28;20435;-66
2022/06/20 10:19:14;;;;;;;9.30;8.33;;;33.70;74.20;;;;;;4960450;28;20482;-65
2022/06/20 10:21:55;;;;;;;8.40;7.60;;;34.10;73.30;;;;;;4970403;28;20435;-66
2022/06/20 10:25:16;;;;;;;8.43;6.90;;;34.10;72.50;;;;;;4971008;28;21023;-66
2022/06/20 10:28:03;;;;;;;10.93;7.70;;;35.20;69.40;;;;;;4967395;28;21101;-66
2022/06/20 10:30:32;;;;;;;7.63;5.88;;;36.20;67.40;;;;;;4963908;28;20446;-67
2022/06/20 10:33:06;;;;;;;9.03;8.10;;;36.70;66.10;;;;;;4967615;28;20275;-67
2022/06/20 10:35:38;;;;;;;7.80;7.07;;;35.10;66.40;;;;;;4968543;28;20439;-67
2022/06/20 10:38:30;;;;;;;7.93;6.87;;;33.90;69.40;;;;;;4973770;28;20811;-65
2022/06/20 10:41:07;;;;;;;7.80;7.17;;;33.60;70.30;;;;;;4968511;28;20446;-67
2022/06/20 10:43:49;;;;;;;7.10;6.37;;;34.00;69.30;;;;;;4974714;28;20489;-67
2022/06/20 10:46:24;;;;;;;11.07;7.10;;;34.00;68.40;;;;;;4971165;28;20942;-66
2022/06/20 10:49:09;;;;;;;7.47;6.60;;;33.30;68.50;;;;;;4979138;28;20473;-66
2022/06/20 10:52:01;;;;;;;6.97;6.30;;;33.90;68.20;;;;;;4974807;28;20446;-66
2022/06/20 10:54:58;;;;;;;11.30;6.03;;;33.50;67.40;;;;;;4968140;28;20840;-66
2022/06/20 10:57:53;;;;;;;5.33;4.93;;;34.40;65.90;;;;;;4969197;28;20446;-66
2022/06/20 11:00:22;;;;;;;7.90;5.27;;;37.00;59.80;;;;;;4968965;28;20443;-66
2022/06/20 11:03:30;;;;;;;5.60;5.13;;;37.00;57.20;;;;;;4965209;28;20817;-66
2022/06/20 11:06:16;;;;;;;6.17;5.53;;;36.70;56.90;;;;;;4968613;28;20525;-66
2022/06/20 11:09:13;;;;;;;5.53;5.03;;;37.80;56.70;;;;;;4969608;28;20473;-66
2022/06/20 11:11:49;;;;;;;7.20;5.03;;;39.90;52.50;;;;;;4970078;28;20834;-66
2022/06/20 11:14:43;;;;;;;5.00;4.70;;;38.00;50.90;;;;;;4970288;28;20555;-66
2022/06/20 11:17:17;;;;;;;5.53;5.00;;;37.20;51.90;;;;;;4949328;28;20447;-66
2022/06/20 11:20:00;;;;;;;4.77;4.37;;;37.90;52.10;;;;;;4961745;28;20514;-66
2022/06/20 11:22:41;;;;;;;6.93;5.00;;;37.80;51.60;;;;;;4969767;28;20483;-66
2022/06/20 11:25:16;;;;;;;5.20;4.70;;;38.30;50.90;;;;;;4969739;28;20463;-66
2022/06/20 11:28:26;;;;;;;6.20;5.60;;;37.20;51.60;;;;;;4964251;28;21052;-65
2022/06/20 11:31:17;;;;;;;4.73;4.37;;;36.20;52.20;;;;;;4922613;29;20449;-66
2022/06/20 11:34:12;;;;;;;7.30;5.13;;;36.30;52.60;;;;;;4932773;29;20461;-66
2022/06/20 11:36:56;;;;;;;6.43;5.40;;;38.40;50.70;;;;;;4964346;28;22164;-66
2022/06/20 11:39:37;;;;;;;5.63;5.07;;;38.80;49.40;;;;;;4965510;28;20448;-66
2022/06/20 11:42:30;;;;;;;6.33;4.87;;;38.70;49.20;;;;;;4970851;28;20453;-66
2022/06/20 11:45:01;;;;;;;6.20;4.80;;;39.50;48.00;;;;;;4967271;28;20459;-66
2022/06/20 11:47:38;;;;;;;6.50;5.43;;;39.80;47.70;;;;;;4965333;28;20482;-66
2022/06/20 11:50:29;;;;;;;10.10;6.37;;;39.50;48.30;;;;;;4966589;28;20979;-66
2022/06/20 11:53:11;;;;;;;8.47;5.67;;;37.90;50.80;;;;;;4965657;28;20456;-66
2022/06/20 11:55:51;;;;;;;7.20;6.50;;;36.30;52.10;;;;;;4966716;28;20878;-65
2022/06/20 11:58:32;;;;;;;8.37;7.63;;;34.70;55.10;;;;;;4968342;28;20806;-66
2022/06/20 12:01:06;;;;;;;7.63;6.83;;;33.30;57.60;;;;;;4966104;28;20459;-66
2022/06/20 12:04:14;;;;;;;6.17;5.60;;;32.70;58.40;;;;;;4965243;28;21283;-66
2022/06/20 12:07:01;;;;;;;7.63;6.20;;;33.60;57.50;;;;;;4966121;28;20451;-66
2022/06/20 12:09:49;;;;;;;6.20;5.60;;;33.50;56.90;;;;;;4965692;28;20431;-66
2022/06/20 12:12:35;;;;;;;8.00;5.97;;;33.30;57.30;;;;;;4966433;28;20494;-66
2022/06/20 12:15:25;;;;;;;6.70;5.00;;;32.90;57.80;;;;;;4965955;28;20518;-66
2022/06/20 12:18:20;;;;;;;6.57;4.53;;;32.30;57.50;;;;;;4966038;28;20493;-66
2022/06/20 12:23:36;;;;;;;8.20;4.90;;;30.70;60.20;;;;;;4968205;28;20473;-65
2022/06/20 12:26:17;;;;;;;4.50;4.10;;;30.00;62.00;;;;;;4970635;28;20443;-66
2022/06/20 12:28:47;;;;;;;4.87;4.43;;;29.80;62.30;;;;;;4966459;28;21015;-66
2022/06/20 12:31:33;;;;;;;5.03;4.13;;;29.40;63.50;;;;;;4967676;28;20436;-65
2022/06/20 12:34:16;;;;;;;4.50;4.10;;;29.30;63.80;;;;;;4970375;28;20459;-65
2022/06/20 12:36:55;;;;;;;5.67;4.30;;;29.20;64.10;;;;;;4969403;28;20431;-65
2022/06/20 12:39:31;;;;;;;4.87;3.47;;;29.20;64.20;;;;;;4964852;28;21021;-66
2022/06/20 12:42:05;;;;;;;5.57;5.07;;;28.70;65.30;;;;;;4971792;28;20431;-66
2022/06/20 12:44:56;;;;;;;6.77;6.07;;;28.50;69.00;;;;;;4974235;28;20479;-66
2022/06/20 12:48:05;;;;;;;7.87;6.43;;;29.40;69.80;;;;;;4970811;28;20466;-65
2022/06/20 12:50:38;;;;;;;7.43;6.50;;;32.70;64.70;;;;;;4968300;28;20913;-65
2022/06/20 12:53:27;;;;;;;8.93;6.70;;;33.40;60.80;;;;;;4972203;28;20447;-65
2022/06/20 12:56:05;;;;;;;8.90;5.40;;;33.80;59.70;;;;;;4968412;28;20443;-65
2022/06/20 12:58:49;;;;;;;6.00;5.40;;;33.80;59.90;;;;;;4971674;28;20537;-65
2022/06/20 13:01:33;;;;;;;7.70;6.27;;;34.30;58.90;;;;;;4970267;28;20506;-65
2022/06/20 13:04:26;;;;;;;6.20;5.60;;;35.70;57.20;;;;;;4975390;28;20455;-66
2022/06/20 13:07:08;;;;;;;8.17;5.80;;;37.40;55.00;;;;;;4977212;28;20447;-65
2022/06/20 13:09:45;;;;;;;8.90;6.23;;;39.40;52.40;;;;;;4968426;28;20471;-65
2022/06/20 13:12:29;;;;;;;6.77;6.17;;;39.70;51.50;;;;;;4971409;28;20985;-65
2022/06/20 13:15:31;;;;;;;8.77;5.97;;;41.60;49.40;;;;;;4972077;28;20969;-65
2022/06/20 13:18:15;;;;;;;12.10;6.70;;;41.50;47.40;;;;;;4969894;28;20483;-65
2022/06/20 13:20:55;;;;;;;8.50;5.90;;;40.00;48.50;;;;;;4964396;28;20559;-64
2022/06/20 13:23:26;;;;;;;8.47;7.30;;;38.80;50.00;;;;;;4969145;28;20530;-65
2022/06/20 13:25:57;;;;;;;11.43;7.00;;;38.10;50.40;;;;;;4969663;28;20447;-65
2022/06/20 13:28:39;;;;;;;7.23;5.87;;;36.50;52.30;;;;;;4967946;28;20529;-65
2022/06/20 13:31:16;;;;;;;8.03;7.13;;;36.30;53.50;;;;;;4963922;28;22056;-65
2022/06/20 13:33:51;;;;;;;7.00;5.80;;;35.50;53.60;;;;;;4969226;28;20470;-65
2022/06/20 13:36:45;;;;;;;8.87;7.40;;;34.90;55.70;;;;;;4970896;28;20445;-65
2022/06/20 13:39:27;;;;;;;7.77;6.60;;;33.80;57.10;;;;;;4965263;28;20554;-65
2022/06/20 13:42:20;;;;;;;7.07;6.50;;;33.50;58.00;;;;;;4970568;28;20449;-65